createdAt,value
2016-09-07T00:03:50.278Z,"    0"
2016-09-07T00:08:46.963Z,"    0"
2016-09-07T00:13:43.577Z,"    0"
2016-09-07T00:18:40.242Z,"    0"
2016-09-07T00:23:36.834Z,"    0"
2016-09-07T00:28:33.410Z,"    0"
2016-09-07T00:33:29.963Z,"    0"
2016-09-07T00:38:26.723Z,"    0"
2016-09-07T00:43:23.144Z,"    0"
2016-09-07T00:48:20.095Z,"    0"
2016-09-07T00:53:16.775Z,"    0"
2016-09-07T00:58:13.616Z,"    0"
2016-09-07T01:03:10.218Z,"    0"
2016-09-07T01:08:06.764Z,"    0"
2016-09-07T01:13:03.465Z,"    0"
2016-09-07T01:18:00.021Z,"    0"
2016-09-07T01:22:56.673Z,"    0"
2016-09-07T01:27:53.162Z,"    0"
2016-09-07T01:32:50.165Z,"    0"
2016-09-07T01:37:47.139Z,"    0"
2016-09-07T01:42:43.808Z,"    0"
2016-09-07T01:47:40.968Z,"    0"
2016-09-07T01:52:37.743Z,"    0"
2016-09-07T01:57:34.370Z,"    0"
2016-09-07T02:02:31.339Z,"    0"
2016-09-07T02:07:28.050Z,"    0"
2016-09-07T02:12:24.485Z,"    0"
2016-09-07T02:17:20.965Z,"    0"
2016-09-07T02:22:17.439Z,"    0"
2016-09-07T02:27:14.521Z,"    0"
2016-09-07T02:32:11.125Z,"    0"
2016-09-07T02:37:07.647Z,"    0"
2016-09-07T02:42:03.990Z,"    0"
2016-09-07T02:47:00.316Z,"    0"
2016-09-07T02:51:56.817Z,"    0"
2016-09-07T02:56:53.472Z,"    0"
2016-09-07T03:01:49.918Z,"    0"
2016-09-07T03:06:46.471Z,"    0"
2016-09-07T03:11:43.331Z,"    0"
2016-09-07T03:16:40.196Z,"    0"
2016-09-07T03:21:36.549Z,"    0"
2016-09-07T03:26:32.986Z,"    0"
2016-09-07T03:31:29.590Z,"    0"
2016-09-07T03:36:26.103Z,"    0"
2016-09-07T03:41:22.588Z,"    0"
2016-09-07T03:46:19.113Z,"    0"
2016-09-07T03:51:16.207Z,"    0"
2016-09-07T03:56:15.550Z,"    0"
2016-09-07T04:01:11.493Z,"    0"
2016-09-07T04:06:07.995Z,"    0"
2016-09-07T04:11:04.995Z,"    0"
2016-09-07T04:16:01.705Z,"    0"
2016-09-07T04:20:58.186Z,"    0"
2016-09-07T04:25:54.766Z,"    4"
2016-09-07T04:30:51.840Z,"    4"
2016-09-07T04:35:48.952Z,"    4"
2016-09-07T04:40:45.467Z,"   12"
2016-09-07T04:45:42.040Z,"   24"
2016-09-07T04:50:39.015Z,"   40"
2016-09-07T04:55:35.719Z,"   68"
2016-09-07T05:00:32.033Z,"  104"
2016-09-07T05:05:28.777Z,"  144"
2016-09-07T05:10:25.662Z,"  188"
2016-09-07T05:15:22.188Z,"  240"
2016-09-07T05:20:19.187Z,"  304"
2016-09-07T05:25:15.673Z,"  360"
2016-09-07T05:30:12.392Z,"  428"
2016-09-07T05:35:09.762Z,"  520"
2016-09-07T05:40:07.518Z,"  608"
2016-09-07T05:45:04.055Z,"  652"
2016-09-07T05:50:01.038Z,"  692"
2016-09-07T05:54:57.532Z,"  732"
2016-09-07T05:59:54.249Z,"  744"
2016-09-07T06:04:50.742Z,"  704"
2016-09-07T06:09:47.323Z,"  692"
2016-09-07T06:14:43.842Z,"  700"
2016-09-07T06:19:41.505Z,"  592"
2016-09-07T06:24:37.827Z,"  640"
2016-09-07T06:29:34.473Z,"  748"
2016-09-07T06:34:33.620Z,"  808"
2016-09-07T06:39:29.789Z,"  864"
2016-09-07T06:44:26.463Z,"  844"
2016-09-07T06:49:23.331Z,"  888"
2016-09-07T06:54:20.083Z,"  912"
2016-09-07T06:59:16.841Z,"  920"
2016-09-07T07:04:13.475Z,"  960"
2016-09-07T07:09:10.551Z," 1008"
2016-09-07T07:14:07.069Z," 1140"
2016-09-07T07:19:03.783Z," 1060"
2016-09-07T07:24:00.507Z," 1468"
2016-09-07T07:28:57.140Z," 2020"
2016-09-07T07:33:53.739Z," 2520"
2016-09-07T07:38:50.420Z," 2740"
2016-09-07T07:43:47.090Z,10016
2016-09-07T07:48:44.149Z,12480
2016-09-07T07:53:41.048Z," 8388"
2016-09-07T07:58:38.024Z," 4476"
2016-09-07T08:03:34.767Z," 2696"
2016-09-07T08:08:31.848Z," 5416"
2016-09-07T08:13:28.756Z,13288
2016-09-07T08:18:26.244Z,13572
2016-09-07T08:23:23.373Z," 5284"
2016-09-07T08:28:20.255Z," 2668"
2016-09-07T08:33:17.431Z," 2316"
2016-09-07T08:38:14.412Z," 2024"
2016-09-07T08:43:11.131Z," 2008"
2016-09-07T08:48:07.986Z," 1960"
2016-09-07T08:53:04.326Z," 1848"
2016-09-07T08:58:00.658Z," 1720"
2016-09-07T09:02:57.099Z," 1636"
2016-09-07T09:07:53.964Z," 1564"
2016-09-07T09:12:50.224Z," 1452"
2016-09-07T09:17:47.004Z," 1368"
2016-09-07T09:22:43.378Z," 1332"
2016-09-07T09:27:40.126Z," 1288"
2016-09-07T09:32:36.518Z," 1092"
2016-09-07T09:37:33.461Z," 1060"
2016-09-07T09:42:29.974Z,"  980"
2016-09-07T09:47:26.554Z,"  916"
2016-09-07T09:52:23.048Z,"  868"
2016-09-07T09:57:19.680Z,"  852"
2016-09-07T10:02:16.244Z,"  856"
2016-09-07T10:07:13.115Z,"  872"
2016-09-07T10:12:09.615Z,"  876"
2016-09-07T10:17:06.347Z,"  872"
2016-09-07T10:22:05.497Z,"  860"
2016-09-07T10:27:01.603Z,"  868"
2016-09-07T10:31:58.214Z,"  864"
2016-09-07T10:36:54.800Z,"  856"
2016-09-07T10:41:51.319Z,"  848"
2016-09-07T10:46:47.930Z,"  832"
2016-09-07T10:51:44.940Z,"  820"
2016-09-07T10:56:41.806Z,"  828"
2016-09-07T11:01:38.872Z,"  824"
2016-09-07T11:06:36.895Z,"  832"
2016-09-07T11:11:33.038Z,"  844"
2016-09-07T11:16:29.641Z,"  848"
2016-09-07T11:21:26.342Z,"  844"
2016-09-07T11:26:22.832Z,"  848"
2016-09-07T11:31:19.499Z,"  844"
2016-09-07T11:36:16.097Z,"  840"
2016-09-07T11:41:12.615Z,"  820"
2016-09-07T11:46:09.414Z,"  812"
2016-09-07T11:51:06.059Z,"  808"
2016-09-07T11:56:05.112Z,"  796"
2016-09-07T12:01:01.369Z,"  776"
2016-09-07T12:05:58.056Z,"  760"
2016-09-07T12:10:54.757Z,"  768"
2016-09-07T12:15:53.869Z,"  764"
2016-09-07T12:20:49.984Z,"  760"
2016-09-07T12:25:46.610Z,"  748"
2016-09-07T12:30:43.364Z,"  728"
2016-09-07T12:35:40.027Z,"  716"
2016-09-07T12:40:36.607Z,"  700"
2016-09-07T12:45:33.185Z,"  688"
2016-09-07T12:50:29.662Z,"  672"
2016-09-07T12:55:26.459Z,"  652"
2016-09-07T13:00:23.086Z,"  636"
2016-09-07T13:05:19.632Z,"  624"
2016-09-07T13:10:16.188Z,"  596"
2016-09-07T13:15:12.830Z,"  588"
2016-09-07T13:20:11.958Z,"  576"
2016-09-07T13:25:08.129Z,"  564"
2016-09-07T13:30:04.795Z,"  556"
2016-09-07T13:35:01.499Z,"  548"
2016-09-07T13:39:58.152Z,"  536"
2016-09-07T13:44:54.918Z,"  524"
2016-09-07T13:49:51.758Z,"  512"
2016-09-07T13:54:48.660Z,"  508"
2016-09-07T13:59:45.042Z,"  504"
2016-09-07T14:04:41.863Z,"  500"
2016-09-07T14:09:38.486Z,"  496"
2016-09-07T14:14:35.245Z,"  492"
2016-09-07T14:19:31.946Z,"  484"
2016-09-07T14:24:28.565Z,"  480"
2016-09-07T14:29:25.163Z,"  476"
2016-09-07T14:34:21.924Z,"  472"
2016-09-07T14:39:20.183Z,"  468"
2016-09-07T14:44:16.424Z,"  464"
2016-09-07T14:49:13.417Z,"  460"
2016-09-07T14:54:10.141Z,"  444"
2016-09-07T14:59:06.888Z,"  460"
2016-09-07T15:04:03.552Z,"  456"
2016-09-07T15:09:00.172Z,"  448"
2016-09-07T15:13:57.351Z,"  444"
2016-09-07T15:18:54.378Z,"  440"
2016-09-07T15:23:50.897Z,"  436"
2016-09-07T15:28:47.961Z,"  428"
2016-09-07T15:33:44.820Z,"  424"
2016-09-07T15:38:41.592Z,"  420"
2016-09-07T15:43:38.657Z,"  416"
2016-09-07T15:48:35.398Z,"  404"
2016-09-07T15:53:31.967Z,"  404"
2016-09-07T15:58:28.710Z,"  392"
2016-09-07T16:03:25.568Z,"  376"
2016-09-07T16:08:22.448Z,"  384"
2016-09-07T16:13:19.235Z,"  380"
2016-09-07T16:18:15.946Z,"  368"
2016-09-07T16:23:12.598Z,"  336"
2016-09-07T16:28:09.831Z,"  336"
2016-09-07T16:33:06.598Z,"  344"
2016-09-07T16:38:03.151Z,"  352"
2016-09-07T16:42:59.930Z,"  368"
2016-09-07T16:47:57.258Z,"  352"
2016-09-07T16:52:56.486Z,"  356"
2016-09-07T16:57:52.607Z,"  316"
2016-09-07T17:02:49.339Z,"  284"
2016-09-07T17:07:48.550Z,"  272"
2016-09-07T17:12:44.972Z,"  244"
2016-09-07T17:17:41.602Z,"  224"
2016-09-07T17:22:38.398Z,"  208"
2016-09-07T17:27:35.316Z,"  184"
2016-09-07T17:32:31.992Z,"  164"
2016-09-07T17:37:28.677Z,"  144"
2016-09-07T17:42:25.450Z,"  120"
2016-09-07T17:47:22.141Z,"   96"
2016-09-07T17:52:19.570Z,"   76"
2016-09-07T17:57:16.841Z,"   52"
2016-09-07T18:02:13.419Z,"   36"
2016-09-07T18:07:10.136Z,"   20"
2016-09-07T18:12:07.926Z,"   12"
2016-09-07T18:17:04.335Z,"    4"
2016-09-07T18:22:01.682Z,"    4"
2016-09-07T18:26:58.380Z,"    0"
2016-09-07T18:31:55.189Z,"    0"
2016-09-07T18:36:52.486Z,"    0"
2016-09-07T18:41:49.206Z,"    0"
2016-09-07T18:46:45.997Z,"    0"
2016-09-07T18:51:42.976Z,"   24"
2016-09-07T18:56:39.798Z,"    0"
2016-09-07T19:01:36.686Z,"    0"
2016-09-07T19:06:33.579Z,"    0"
2016-09-07T19:11:30.458Z,"    0"
2016-09-07T19:16:27.728Z,"    0"
2016-09-07T19:21:24.593Z,"    0"
2016-09-07T19:26:24.583Z,"    0"
2016-09-07T19:31:20.932Z,"    0"
2016-09-07T19:36:17.724Z,"    0"
2016-09-07T19:41:14.699Z,"    0"
2016-09-07T19:46:11.185Z,"    0"
2016-09-07T19:51:08.090Z,"    0"
2016-09-07T19:56:05.084Z,"    0"
2016-09-07T20:01:02.001Z,"    0"
2016-09-07T20:05:58.637Z,"    0"
2016-09-07T20:10:56.834Z,"    0"
2016-09-07T20:15:53.127Z,"    0"
2016-09-07T20:20:50.020Z,"    0"
2016-09-07T20:25:47.062Z,"    0"
2016-09-07T20:30:43.748Z,"    0"
2016-09-07T20:35:40.375Z,"    0"
2016-09-07T20:40:36.789Z,"    0"
2016-09-07T20:45:35.942Z,"    0"
2016-09-07T20:50:32.229Z,"    0"
2016-09-07T20:55:29.030Z,"    0"
2016-09-07T21:00:25.587Z,"    0"
2016-09-07T21:05:22.223Z,"    0"
2016-09-07T21:10:18.613Z,"    0"
2016-09-07T21:15:15.272Z,"    0"
2016-09-07T21:20:11.832Z,"    0"
2016-09-07T21:25:08.403Z,"    0"
2016-09-07T21:30:04.992Z,"    0"
2016-09-07T21:35:01.615Z,"    0"
2016-09-07T21:39:58.100Z,"    0"
2016-09-07T21:44:54.705Z,"    0"
2016-09-07T21:49:51.371Z,"    0"
2016-09-07T21:54:50.414Z,"    0"
2016-09-07T21:59:46.136Z,"    0"
2016-09-07T22:04:42.641Z,"    0"
2016-09-07T22:09:39.263Z,"    0"
2016-09-07T22:14:35.807Z,"    0"
2016-09-07T22:19:32.398Z,"    0"
2016-09-07T22:24:29.070Z,"    0"
2016-09-07T22:29:25.781Z,"    0"
2016-09-07T22:34:22.512Z,"    0"
2016-09-07T22:39:19.247Z,"    0"
2016-09-07T22:44:15.963Z,"    0"
2016-09-07T22:49:12.623Z,"    0"
2016-09-07T22:54:09.058Z,"    0"
2016-09-07T22:59:05.785Z,"    0"
2016-09-07T23:04:02.265Z,"    0"
2016-09-07T23:08:59.686Z,"    0"
2016-09-07T23:13:57.358Z,"    0"
2016-09-07T23:18:53.839Z,"    0"
2016-09-07T23:23:50.308Z,"    0"
2016-09-07T23:28:46.962Z,"    0"
2016-09-07T23:33:43.738Z,"    0"
2016-09-07T23:38:40.596Z,"    0"
2016-09-07T23:43:37.989Z,"    0"
2016-09-07T23:48:34.779Z,"    0"
2016-09-07T23:53:31.269Z,"    0"
2016-09-07T23:58:27.749Z,"    0"
